Time;durP1;ratioP1;P1;durP2;ratioP2;P2;SDS_P1;SDS_P2;PMS_P1;PMS_P2;Temp;Humidity;BMP_temperature;BMP_pressure;BME280_temperature;BME280_humidity;BME280_pressure;Samples;Min_cycle;Max_cycle;Signal;HPM_P1;HPM_P2
2021/09/25 00:00:39;;;;;;;10.00;6.00;;;;;;;8.84;100.00;94027.97;5133671;28;20574;-77
2021/09/25 00:03:07;;;;;;;10.70;5.97;;;;;;;8.81;100.00;94029.16;5133392;28;20562;-77
2021/09/25 00:05:36;;;;;;;11.37;5.80;;;;;;;8.80;100.00;94022.31;5133445;28;20205;-77
2021/09/25 00:08:02;;;;;;;11.20;6.57;;;;;;;8.80;100.00;94022.31;5133395;28;20651;-77
2021/09/25 00:10:29;;;;;;;13.73;5.83;;;;;;;8.79;100.00;94019.91;5133225;28;20197;-76
2021/09/25 00:12:57;;;;;;;15.00;6.27;;;;;;;8.84;100.00;94018.38;5133315;28;20578;-76
2021/09/25 00:15:29;;;;;;;12.23;6.17;;;;;;;8.86;100.00;94016.38;5133348;28;20205;-77
2021/09/25 00:17:57;;;;;;;12.93;6.23;;;;;;;8.84;100.00;94009.75;5133426;28;20193;-77
2021/09/25 00:20:24;;;;;;;9.40;5.97;;;;;;;8.84;100.00;94010.56;5133327;28;20201;-77
2021/09/25 00:22:51;;;;;;;11.33;6.40;;;;;;;8.75;100.00;94001.25;5133186;27;20667;-76
2021/09/25 00:25:18;;;;;;;10.83;6.00;;;;;;;8.70;100.00;94006.19;5133271;28;20193;-76
2021/09/25 00:27:44;;;;;;;9.17;5.57;;;;;;;8.66;100.00;94003.16;5133337;28;20201;-76
2021/09/25 00:30:12;;;;;;;11.10;6.40;;;;;;;8.67;100.00;94003.94;5133418;27;20201;-77
2021/09/25 00:32:39;;;;;;;12.17;6.07;;;;;;;8.67;100.00;94006.56;5136635;27;20225;-76
2021/09/25 00:35:09;;;;;;;11.70;5.50;;;;;;;8.72;100.00;94006.00;5136870;27;20209;-77
2021/09/25 00:37:36;;;;;;;15.47;5.50;;;;;;;8.56;100.00;94007.84;5135743;27;20219;-77
2021/09/25 00:40:09;;;;;;;10.60;5.73;;;;;;;8.55;100.00;94008.03;5116381;28;20204;-77
2021/09/25 00:42:36;;;;;;;10.37;5.70;;;;;;;8.57;100.00;94011.25;5116338;28;20229;-77
2021/09/25 00:45:05;;;;;;;13.10;6.07;;;;;;;8.57;100.00;94016.44;5116211;28;20201;-77
2021/09/25 00:47:39;;;;;;;10.87;6.30;;;;;;;8.50;100.00;94016.38;5116194;28;20197;-77
2021/09/25 00:50:11;;;;;;;11.07;5.70;;;;;;;8.52;100.00;94025.59;5115886;28;20209;-77
2021/09/25 00:52:37;;;;;;;10.97;6.57;;;;;;;8.53;100.00;94023.81;5115749;28;20221;-77
2021/09/25 00:55:08;;;;;;;9.87;5.43;;;;;;;8.57;100.00;94042.47;5116043;28;20286;-77
2021/09/25 00:57:35;;;;;;;11.93;5.70;;;;;;;8.51;100.00;94044.81;5115865;28;20201;-77
2021/09/25 01:00:02;;;;;;;9.77;5.63;;;;;;;8.43;100.00;94042.31;5115856;28;20671;-78
2021/09/25 01:02:29;;;;;;;9.83;5.40;;;;;;;8.44;100.00;94045.69;5115714;28;20205;-77
2021/09/25 01:04:56;;;;;;;11.40;5.70;;;;;;;8.46;100.00;94039.34;5115857;28;20198;-77
2021/09/25 01:07:24;;;;;;;9.20;5.27;;;;;;;8.40;100.00;94042.63;5115487;28;20209;-77
2021/09/25 01:09:50;;;;;;;10.93;5.60;;;;;;;8.41;100.00;94039.06;5115668;28;20205;-77
2021/09/25 01:12:17;;;;;;;16.10;5.87;;;;;;;8.45;100.00;94044.72;5115111;28;20229;-78
2021/09/25 01:14:45;;;;;;;13.53;5.90;;;;;;;8.43;100.00;94039.69;5114844;28;20197;-78
2021/09/25 01:17:14;;;;;;;9.27;5.77;;;;;;;8.39;100.00;94038.41;5115438;28;20201;-76
2021/09/25 01:19:44;;;;;;;11.50;5.50;;;;;;;8.34;100.00;94033.75;5115296;28;20201;-78
2021/09/25 01:22:15;;;;;;;9.23;5.47;;;;;;;8.35;100.00;94039.75;5115468;28;20559;-78
2021/09/25 01:24:42;;;;;;;12.73;5.50;;;;;;;8.33;100.00;94032.13;5115394;28;20198;-77
2021/09/25 01:27:11;;;;;;;11.87;6.20;;;;;;;8.35;100.00;94029.34;5115067;28;20240;-77
2021/09/25 01:29:40;;;;;;;8.73;5.30;;;;;;;8.31;100.00;94028.09;5115001;28;20205;-77
2021/09/25 01:32:08;;;;;;;11.17;5.27;;;;;;;8.34;100.00;94030.31;5115178;28;20221;-78
2021/09/25 01:34:35;;;;;;;9.67;5.63;;;;;;;8.35;100.00;94026.75;5115229;28;20295;-77
2021/09/25 01:37:02;;;;;;;11.60;6.23;;;;;;;8.29;100.00;94030.91;5115046;28;20204;-77
2021/09/25 01:39:31;;;;;;;11.87;5.13;;;;;;;8.28;100.00;94023.28;5114885;28;20208;-77
2021/09/25 01:41:59;;;;;;;10.10;5.87;;;;;;;8.24;100.00;94020.19;5116626;27;20247;-77
2021/09/25 01:44:28;;;;;;;11.83;5.20;;;;;;;8.23;100.00;94028.19;5114182;28;20682;-77
2021/09/25 01:46:58;;;;;;;10.30;5.77;;;;;;;8.19;100.00;94026.94;5114953;28;20201;-77
2021/09/25 01:49:26;;;;;;;12.07;5.43;;;;;;;8.31;100.00;94017.69;5114806;28;20602;-77
2021/09/25 01:51:53;;;;;;;11.23;6.33;;;;;;;8.32;100.00;94024.50;5114783;28;20228;-78
2021/09/25 01:54:22;;;;;;;11.47;5.50;;;;;;;8.27;100.00;94021.63;5114714;28;20201;-78
2021/09/25 01:56:52;;;;;;;10.67;5.20;;;;;;;8.20;100.00;94018.16;5114819;28;20213;-77
2021/09/25 01:59:18;;;;;;;11.20;5.10;;;;;;;8.18;100.00;94012.31;5114310;28;20201;-77
2021/09/25 02:01:45;;;;;;;11.17;6.07;;;;;;;8.30;100.00;94010.88;5114568;28;20216;-78
2021/09/25 02:04:13;;;;;;;11.40;6.37;;;;;;;8.19;100.00;94008.72;5114490;28;20197;-78
2021/09/25 02:06:44;;;;;;;10.93;6.13;;;;;;;8.23;100.00;94000.41;5114398;28;20197;-78
2021/09/25 02:09:10;;;;;;;12.40;6.20;;;;;;;8.23;100.00;94004.78;5114394;28;20197;-78
2021/09/25 02:11:37;;;;;;;9.93;6.17;;;;;;;8.25;100.00;94008.81;5114458;28;20221;-78
2021/09/25 02:14:07;;;;;;;12.30;5.43;;;;;;;8.23;100.00;93995.19;5114342;28;20201;-78
2021/09/25 02:16:34;;;;;;;12.33;5.70;;;;;;;8.21;100.00;93986.78;5114422;28;20288;-78
2021/09/25 02:19:00;;;;;;;12.20;6.10;;;;;;;8.27;100.00;93990.44;5114188;28;20205;-78
2021/09/25 02:21:27;;;;;;;9.80;5.70;;;;;;;8.25;100.00;93993.22;5114228;28;20573;-77
2021/09/25 02:23:53;;;;;;;10.97;5.47;;;;;;;8.18;100.00;93992.31;5114022;28;20276;-78
2021/09/25 02:26:20;;;;;;;10.40;5.60;;;;;;;8.18;100.00;93991.50;5113756;28;20746;-78
2021/09/25 02:28:46;;;;;;;10.20;5.20;;;;;;;8.22;100.00;93985.75;5114183;28;20258;-78
2021/09/25 02:31:19;;;;;;;9.17;5.87;;;;;;;8.19;100.00;93988.72;5113819;28;20201;-78
2021/09/25 02:33:46;;;;;;;9.23;5.27;;;;;;;8.11;100.00;93981.84;5114022;28;20208;-77
2021/09/25 02:36:12;;;;;;;13.23;5.20;;;;;;;8.12;100.00;93977.44;5113854;28;20197;-77
2021/09/25 02:38:39;;;;;;;7.93;4.97;;;;;;;8.06;100.00;93978.16;5114005;28;20204;-77
2021/09/25 02:41:06;;;;;;;9.03;5.10;;;;;;;8.01;100.00;93981.31;5113952;28;20652;-77
2021/09/25 02:43:34;;;;;;;10.17;5.50;;;;;;;8.03;100.00;93983.72;5113628;28;20240;-77
2021/09/25 02:46:01;;;;;;;9.93;5.00;;;;;;;8.06;100.00;93976.38;5113672;28;20680;-78
2021/09/25 02:48:29;;;;;;;7.97;4.90;;;;;;;8.06;100.00;93972.94;5113676;28;20194;-78
2021/09/25 02:50:56;;;;;;;11.13;4.97;;;;;;;8.14;100.00;93986.69;5113543;28;20672;-78
2021/09/25 02:53:25;;;;;;;14.13;5.13;;;;;;;8.20;100.00;93976.53;5113368;28;20220;-78
2021/09/25 02:55:51;;;;;;;8.47;5.23;;;;;;;8.07;100.00;93967.56;5113481;28;20643;-77
2021/09/25 02:58:19;;;;;;;11.10;4.67;;;;;;;8.07;100.00;93977.97;5113589;28;20198;-77
2021/09/25 03:00:46;;;;;;;8.90;4.87;;;;;;;8.12;100.00;93970.44;5113487;28;20216;-77
2021/09/25 03:03:12;;;;;;;11.10;4.57;;;;;;;8.10;100.00;93966.41;5113419;28;20205;-77
2021/09/25 03:05:40;;;;;;;10.07;4.60;;;;;;;7.98;100.00;93960.88;5113924;28;20201;-76
2021/09/25 03:08:07;;;;;;;7.77;3.93;;;;;;;7.99;100.00;93972.84;5113490;28;20219;-77
2021/09/25 03:10:33;;;;;;;7.07;4.27;;;;;;;7.98;100.00;93968.66;5113685;28;20199;-77
2021/09/25 03:13:01;;;;;;;9.07;4.47;;;;;;;7.96;100.00;93978.44;5113449;28;20228;-77
2021/09/25 03:15:28;;;;;;;6.83;4.20;;;;;;;7.95;100.00;93966.41;5113392;28;20559;-77
2021/09/25 03:17:56;;;;;;;7.10;4.37;;;;;;;8.00;100.00;93969.28;5113375;28;20197;-77
2021/09/25 03:20:27;;;;;;;10.47;4.23;;;;;;;7.96;100.00;93968.03;5113421;28;20678;-77
2021/09/25 03:22:54;;;;;;;6.93;4.43;;;;;;;7.98;100.00;93960.88;5113467;28;20193;-77
2021/09/25 03:25:24;;;;;;;6.53;4.20;;;;;;;8.04;100.00;93964.53;5113048;28;20204;-77
2021/09/25 03:27:54;;;;;;;11.43;4.27;;;;;;;8.15;100.00;93967.47;5113374;28;20209;-77
2021/09/25 03:30:21;;;;;;;8.63;4.37;;;;;;;8.19;100.00;93969.72;5113136;28;20283;-77
2021/09/25 03:32:48;;;;;;;8.37;4.27;;;;;;;8.20;100.00;93969.53;5113237;28;20244;-76
2021/09/25 03:35:15;;;;;;;7.60;4.20;;;;;;;8.22;100.00;93966.75;5113379;28;20201;-76
2021/09/25 03:37:49;;;;;;;6.77;4.30;;;;;;;8.20;100.00;93964.34;5113410;28;20204;-76
2021/09/25 03:40:18;;;;;;;6.83;3.90;;;;;;;8.15;100.00;93970.06;5113290;28;20201;-77
2021/09/25 03:42:47;;;;;;;6.87;4.47;;;;;;;8.23;100.00;93968.38;5113171;28;20247;-77
2021/09/25 03:45:16;;;;;;;6.80;4.00;;;;;;;8.21;100.00;93968.56;5113294;28;20201;-77
2021/09/25 03:47:45;;;;;;;6.17;3.80;;;;;;;8.21;100.00;93973.75;5113265;28;20201;-77
2021/09/25 03:50:12;;;;;;;11.50;4.10;;;;;;;8.25;100.00;93969.81;5113081;28;20597;-76
2021/09/25 03:52:41;;;;;;;6.03;4.27;;;;;;;8.20;100.00;93968.75;5114428;28;20213;-76
2021/09/25 03:55:08;;;;;;;6.43;4.07;;;;;;;8.31;100.00;93971.69;5113166;28;20198;-77
2021/09/25 03:57:40;;;;;;;10.87;4.37;;;;;;;8.36;100.00;93978.94;5112867;28;20220;-77
2021/09/25 04:00:08;;;;;;;6.87;4.10;;;;;;;8.49;100.00;93973.94;5113234;28;20205;-76
2021/09/25 04:02:36;;;;;;;7.37;3.90;;;;;;;8.54;100.00;93973.38;5112364;28;20208;-77
2021/09/25 04:05:02;;;;;;;6.23;3.83;;;;;;;8.67;100.00;93965.72;5113068;28;20208;-77
2021/09/25 04:07:29;;;;;;;9.30;4.07;;;;;;;8.56;100.00;93966.22;5116246;28;20651;-77
2021/09/25 04:09:57;;;;;;;10.33;4.23;;;;;;;8.63;100.00;93961.06;5116706;28;20197;-77
2021/09/25 04:12:24;;;;;;;7.77;4.03;;;;;;;8.71;100.00;93966.16;5116999;28;20229;-77
2021/09/25 04:14:52;;;;;;;8.47;3.73;;;;;;;8.67;100.00;93963.09;5116648;28;20593;-77
2021/09/25 04:17:18;;;;;;;6.03;3.53;;;;;;;8.68;100.00;93967.31;5116872;28;20209;-77
2021/09/25 04:19:45;;;;;;;4.97;3.40;;;;;;;8.52;100.00;93968.34;5116551;28;20205;-76
2021/09/25 04:22:13;;;;;;;7.20;3.97;;;;;;;8.51;100.00;93971.16;5116632;28;20205;-77
2021/09/25 04:24:43;;;;;;;6.50;3.80;;;;;;;8.43;100.00;93959.03;5116321;28;20528;-76
2021/09/25 04:27:10;;;;;;;11.87;4.03;;;;;;;8.39;100.00;93962.16;5116176;28;20595;-76
2021/09/25 04:29:42;;;;;;;7.30;3.93;;;;;;;8.40;100.00;93967.19;5116488;28;20217;-77
2021/09/25 04:32:18;;;;;;;7.07;4.03;;;;;;;8.37;100.00;93961.53;5116311;28;20248;-76
2021/09/25 04:34:45;;;;;;;7.40;3.93;;;;;;;8.29;100.00;93963.25;5116407;28;20201;-76
2021/09/25 04:37:12;;;;;;;9.17;4.07;;;;;;;8.36;100.00;93968.53;5116188;28;20194;-76
2021/09/25 04:39:42;;;;;;;8.87;4.17;;;;;;;8.29;100.00;93965.03;5116248;28;20194;-76
2021/09/25 04:42:08;;;;;;;9.83;4.60;;;;;;;8.39;100.00;93969.97;5116076;28;20211;-76
2021/09/25 04:44:35;;;;;;;10.40;4.50;;;;;;;8.44;100.00;93965.03;5116107;28;20284;-77
2021/09/25 04:47:02;;;;;;;8.33;5.07;;;;;;;8.38;100.00;93966.56;5116098;28;20659;-76
2021/09/25 04:49:32;;;;;;;9.77;4.47;;;;;;;8.55;100.00;93963.78;5115998;28;20209;-76
2021/09/25 04:52:01;;;;;;;6.20;4.00;;;;;;;8.88;100.00;93953.72;5116071;28;20205;-77
2021/09/25 04:54:30;;;;;;;7.27;3.83;;;;;;;8.93;100.00;93950.56;5115848;28;20740;-76
2021/09/25 04:56:58;;;;;;;7.23;4.17;;;;;;;9.02;100.00;93946.84;5116026;28;20201;-76
2021/09/25 04:59:26;;;;;;;6.47;4.20;;;;;;;8.95;100.00;93946.78;5115835;28;20209;-76
2021/09/25 05:01:53;;;;;;;9.10;4.17;;;;;;;8.91;100.00;93945.53;5115887;28;20208;-77
2021/09/25 05:04:22;;;;;;;7.50;3.70;;;;;;;8.96;100.00;93947.56;5115758;28;20220;-77
2021/09/25 05:06:49;;;;;;;9.47;3.53;;;;;;;8.87;100.00;93950.28;5115975;28;20205;-76
2021/09/25 05:09:18;;;;;;;6.40;3.50;;;;;;;8.82;100.00;93951.84;5115866;28;20201;-76
2021/09/25 05:11:45;;;;;;;8.43;3.90;;;;;;;8.82;100.00;93952.66;5115745;28;20540;-76
2021/09/25 05:14:16;;;;;;;7.23;4.40;;;;;;;8.96;100.00;93947.56;5115321;28;20224;-77
2021/09/25 05:16:43;;;;;;;6.57;4.40;;;;;;;9.00;100.00;93949.63;5115315;28;20205;-77
2021/09/25 05:19:10;;;;;;;8.43;4.00;;;;;;;9.07;100.00;93950.47;5115373;28;20205;-77
2021/09/25 05:21:41;;;;;;;7.67;4.43;;;;;;;9.06;100.00;93940.28;5115393;28;20650;-76
2021/09/25 05:24:09;;;;;;;10.00;3.77;;;;;;;9.09;100.00;93955.50;5115598;28;20217;-77
2021/09/25 05:26:36;;;;;;;7.73;4.47;;;;;;;9.08;100.00;93948.69;5115445;28;20320;-76
2021/09/25 05:29:08;;;;;;;8.77;4.77;;;;;;;9.13;100.00;93943.72;5115239;28;20197;-76
2021/09/25 05:31:36;;;;;;;7.33;4.57;;;;;;;9.08;100.00;93946.91;5115320;28;20604;-77
2021/09/25 05:34:04;;;;;;;6.97;4.37;;;;;;;9.14;100.00;93950.53;5115085;28;20230;-77
2021/09/25 05:36:38;;;;;;;8.40;5.07;;;;;;;9.12;100.00;93952.53;5115229;28;20224;-77
2021/09/25 05:39:05;;;;;;;6.23;4.20;;;;;;;9.23;100.00;93953.84;5115218;28;20205;-77
2021/09/25 05:41:39;;;;;;;8.00;4.93;;;;;;;9.24;100.00;93948.44;5114958;28;20203;-77
2021/09/25 05:44:07;;;;;;;9.47;4.60;;;;;;;9.46;100.00;93958.84;5114812;28;20197;-77
2021/09/25 05:46:34;;;;;;;9.30;4.50;;;;;;;9.54;100.00;93956.09;5130220;27;20205;-77
2021/09/25 05:49:00;;;;;;;11.43;5.00;;;;;;;9.51;100.00;93966.91;5135612;27;20283;-77
2021/09/25 05:51:34;;;;;;;8.53;4.43;;;;;;;9.48;100.00;93974.28;5135595;27;20204;-77
2021/09/25 05:54:02;;;;;;;9.53;5.43;;;;;;;9.57;100.00;93968.72;5135125;27;20590;-77
2021/09/25 05:56:34;;;;;;;9.47;4.97;;;;;;;9.59;100.00;93963.31;5135217;27;20698;-77
2021/09/25 05:59:03;;;;;;;10.77;5.03;;;;;;;9.72;100.00;93968.63;5135234;27;20745;-77
2021/09/25 06:01:32;;;;;;;11.57;5.07;;;;;;;9.84;100.00;93963.69;5135072;27;20578;-77
2021/09/25 06:04:01;;;;;;;9.73;5.50;;;;;;;9.94;100.00;93958.97;5135110;27;20201;-77
2021/09/25 06:06:30;;;;;;;14.07;5.90;;;;;;;10.07;100.00;93954.81;5135101;27;20659;-76
2021/09/25 06:08:59;;;;;;;10.90;5.50;;;;;;;10.08;100.00;93952.00;5135023;27;20200;-78
2021/09/25 06:11:28;;;;;;;7.40;4.83;;;;;;;10.10;100.00;93957.03;5135037;27;20200;-77
2021/09/25 06:13:58;;;;;;;7.87;5.17;;;;;;;10.12;100.00;93958.44;5135092;27;20371;-76
2021/09/25 06:16:26;;;;;;;7.20;4.90;;;;;;;10.17;100.00;93961.31;5134826;27;20565;-76
2021/09/25 06:18:55;;;;;;;8.00;5.07;;;;;;;10.24;100.00;93961.34;5134827;27;20665;-77
2021/09/25 06:21:21;;;;;;;12.00;4.60;;;;;;;10.22;100.00;93963.31;5134403;27;20651;-78
2021/09/25 06:23:48;;;;;;;8.23;4.90;;;;;;;10.25;100.00;93957.72;5134996;27;20223;-78
2021/09/25 06:26:17;;;;;;;9.40;5.10;;;;;;;10.33;100.00;93956.78;5134534;27;20303;-76
2021/09/25 06:28:46;;;;;;;10.87;5.53;;;;;;;10.48;100.00;93956.63;5134161;27;20201;-77
2021/09/25 06:31:13;;;;;;;8.90;5.23;;;;;;;10.68;100.00;93965.34;5134779;27;20204;-77
2021/09/25 06:33:43;;;;;;;10.03;5.30;;;;;;;10.72;100.00;93963.97;5134487;27;20232;-77
2021/09/25 06:36:09;;;;;;;9.17;5.70;;;;;;;10.84;100.00;93964.19;5134880;27;20228;-77
2021/09/25 06:38:36;;;;;;;13.23;6.10;;;;;;;10.87;100.00;93965.59;5134466;27;20253;-77
2021/09/25 06:41:06;;;;;;;9.87;5.73;;;;;;;11.06;100.00;93954.38;5134517;27;20196;-78
2021/09/25 06:43:33;;;;;;;8.73;5.77;;;;;;;11.17;100.00;93970.47;5134054;27;20279;-78
2021/09/25 06:45:59;;;;;;;10.50;6.30;;;;;;;11.24;100.00;93971.28;5134211;27;20624;-77
2021/09/25 06:48:28;;;;;;;15.00;6.67;;;;;;;11.37;100.00;93978.34;5134235;27;20536;-77
2021/09/25 06:50:56;;;;;;;15.57;7.83;;;;;;;11.51;100.00;93973.91;5134165;27;20232;-78
2021/09/25 06:53:25;;;;;;;17.00;9.43;;;;;;;11.69;100.00;93974.13;5134234;27;20235;-77
2021/09/25 06:55:51;;;;;;;15.83;9.10;;;;;;;12.01;100.00;93977.72;5134257;27;20207;-77
2021/09/25 06:58:18;;;;;;;17.53;8.77;;;;;;;12.14;100.00;93976.91;5134238;27;20197;-78
2021/09/25 07:00:47;;;;;;;13.07;7.97;;;;;;;12.32;100.00;93970.22;5134113;27;20201;-77
2021/09/25 07:03:17;;;;;;;15.00;7.53;;;;;;;12.71;100.00;93971.09;5134261;27;20204;-76
2021/09/25 07:05:46;;;;;;;14.60;8.73;;;;;;;12.85;100.00;93966.56;5133039;27;20469;-77
2021/09/25 07:08:14;;;;;;;16.38;7.55;;;;;;;13.01;100.00;93975.78;5134147;27;20208;-77
2021/09/25 07:10:41;;;;;;;11.13;6.00;;;;;;;13.21;100.00;93976.44;5134084;27;20232;-77
2021/09/25 07:13:07;;;;;;;10.57;5.60;;;;;;;13.40;100.00;93976.56;5133857;27;20228;-77
2021/09/25 07:15:36;;;;;;;11.48;6.43;;;;;;;13.47;100.00;93986.00;5133892;27;20224;-77
2021/09/25 07:18:02;;;;;;;9.25;6.07;;;;;;;13.64;100.00;93986.28;5134056;27;20200;-78
2021/09/25 07:20:29;;;;;;;10.00;5.75;;;;;;;13.77;100.00;93988.00;5134055;27;20211;-77
2021/09/25 07:22:55;;;;;;;7.35;5.70;;;;;;;14.12;100.00;93987.47;5133970;27;20200;-77
2021/09/25 07:25:24;;;;;;;9.07;6.00;;;;;;;14.23;100.00;93983.31;5133606;27;20566;-77
2021/09/25 07:27:53;;;;;;;9.00;5.43;;;;;;;14.38;100.00;93980.34;5133754;28;20216;-76
2021/09/25 07:30:19;;;;;;;9.95;5.10;;;;;;;14.53;100.00;93980.78;5133959;28;20205;-76
2021/09/25 07:32:48;;;;;;;8.63;5.00;;;;;;;14.54;100.00;93978.97;5125931;28;20196;-78
2021/09/25 07:35:21;;;;;;;6.88;5.38;;;;;;;14.65;100.00;93978.22;5113201;28;20262;-78
2021/09/25 07:37:48;;;;;;;6.25;4.68;;;;;;;14.74;100.00;93982.19;5113305;28;20562;-77
2021/09/25 07:40:14;;;;;;;10.35;5.25;;;;;;;14.92;100.00;93972.66;5131208;27;20200;-77
2021/09/25 07:42:42;;;;;;;7.03;5.20;;;;;;;15.02;100.00;93980.00;5137447;27;20437;-77
2021/09/25 07:45:10;;;;;;;7.78;5.45;;;;;;;15.09;100.00;93978.91;5137825;27;20215;-78
2021/09/25 07:47:39;;;;;;;7.72;5.22;;;;;;;15.26;100.00;93992.22;5137836;27;20643;-79
2021/09/25 07:50:08;;;;;;;6.90;4.80;;;;;;;15.37;100.00;93985.41;5138002;27;20196;-78
2021/09/25 07:52:38;;;;;;;6.00;4.47;;;;;;;15.49;100.00;93993.34;5137662;27;20529;-79
2021/09/25 07:55:06;;;;;;;7.70;5.18;;;;;;;15.69;100.00;93991.19;5137603;27;20316;-78
2021/09/25 07:57:33;;;;;;;6.75;4.32;;;;;;;15.90;100.00;93991.69;5137190;27;20325;-79
2021/09/25 08:00:02;;;;;;;6.32;4.40;;;;;;;16.20;100.00;93996.06;5137585;27;20304;-78
2021/09/25 08:02:28;;;;;;;7.22;4.15;;;;;;;16.26;100.00;94000.41;5137643;27;20228;-78
2021/09/25 08:04:55;;;;;;;5.30;4.18;;;;;;;16.35;100.00;93995.59;5137432;27;20207;-78
2021/09/25 08:07:21;;;;;;;6.05;4.15;;;;;;;16.56;100.00;93995.00;5137409;27;20658;-78
2021/09/25 08:09:48;;;;;;;9.82;4.20;;;;;;;16.68;100.00;93994.19;5137637;27;20197;-78
2021/09/25 08:12:16;;;;;;;7.95;4.30;;;;;;;16.73;100.00;93994.28;5137482;27;20204;-78
2021/09/25 08:14:45;;;;;;;8.25;3.75;;;;;;;16.77;100.00;93995.41;5137368;27;20243;-78
2021/09/25 08:17:15;;;;;;;5.93;4.30;;;;;;;16.91;100.00;94004.69;5137384;27;20197;-78
2021/09/25 08:19:42;;;;;;;6.00;4.25;;;;;;;17.02;100.00;93998.59;5137282;27;20589;-78
2021/09/25 08:22:10;;;;;;;4.50;3.65;;;;;;;17.15;100.00;94004.59;5137112;27;20204;-78
2021/09/25 08:24:37;;;;;;;6.55;4.15;;;;;;;17.23;100.00;93991.03;5137136;27;20193;-77
2021/09/25 08:27:03;;;;;;;7.68;3.63;;;;;;;17.35;100.00;93997.09;5136983;27;20267;-77
2021/09/25 08:29:30;;;;;;;11.98;3.60;;;;;;;17.46;100.00;93997.25;5137149;27;20205;-77
2021/09/25 08:31:59;;;;;;;5.93;3.53;;;;;;;17.50;100.00;93998.38;5137074;27;20203;-79
2021/09/25 08:34:27;;;;;;;5.07;3.97;;;;;;;17.64;100.00;93994.41;5136821;27;20304;-77
2021/09/25 08:36:55;;;;;;;6.50;4.07;;;;;;;17.70;100.00;93988.16;5137144;27;20197;-77
2021/09/25 08:39:22;;;;;;;8.23;4.03;;;;;;;17.82;100.00;93989.91;5136880;27;20196;-77
2021/09/25 08:41:51;;;;;;;8.38;3.65;;;;;;;17.96;100.00;93996.53;5136963;27;20204;-77
2021/09/25 08:44:21;;;;;;;4.97;3.65;;;;;;;17.99;100.00;93990.75;5136801;27;20666;-77
2021/09/25 08:46:48;;;;;;;5.63;3.53;;;;;;;18.01;100.00;93993.16;5137056;27;20193;-78
2021/09/25 08:49:14;;;;;;;5.60;3.50;;;;;;;18.04;100.00;93993.47;5136626;27;20544;-77
2021/09/25 08:51:42;;;;;;;7.47;4.50;;;;;;;18.11;100.00;93988.81;5136073;27;20208;-77
2021/09/25 08:54:14;;;;;;;5.65;3.70;;;;;;;18.19;100.00;93992.91;5136644;27;20231;-77
2021/09/25 08:56:41;;;;;;;7.80;3.30;;;;;;;18.24;100.00;93992.19;5136647;27;20201;-77
2021/09/25 08:59:07;;;;;;;4.80;3.20;;;;;;;18.40;100.00;93991.38;5136457;27;20201;-77
2021/09/25 09:01:35;;;;;;;4.97;3.28;;;;;;;18.48;100.00;93998.06;5136347;27;20197;-77
2021/09/25 09:04:03;;;;;;;4.65;3.33;;;;;;;18.60;100.00;93995.31;5136465;27;20208;-77
2021/09/25 09:06:31;;;;;;;7.00;4.47;;;;;;;18.74;100.00;93991.25;5136514;27;20552;-77
2021/09/25 09:09:03;;;;;;;4.65;3.53;;;;;;;18.79;100.00;93996.63;5136287;27;20192;-78
2021/09/25 09:11:30;;;;;;;7.07;3.75;;;;;;;18.95;100.00;93995.00;5136367;27;20226;-78
2021/09/25 09:14:00;;;;;;;8.27;4.20;;;;;;;19.11;100.00;93985.38;5136189;27;20223;-77
2021/09/25 09:16:28;;;;;;;5.60;3.53;;;;;;;19.20;100.00;93991.00;5136130;27;20200;-79
2021/09/25 09:18:55;;;;;;;4.63;3.17;;;;;;;19.38;100.00;93984.56;5136275;27;20217;-77
2021/09/25 09:21:23;;;;;;;4.40;3.00;;;;;;;19.34;100.00;93988.78;5136239;27;20200;-77
2021/09/25 09:23:52;;;;;;;6.38;3.58;;;;;;;19.36;100.00;93987.47;5136067;27;20208;-78
2021/09/25 09:26:22;;;;;;;5.00;3.40;;;;;;;19.33;100.00;93976.59;5135802;27;20587;-78
2021/09/25 09:28:51;;;;;;;3.33;2.70;;;;;;;19.40;97.15;93977.19;5135878;27;20236;-78
2021/09/25 09:31:19;;;;;;;3.45;2.63;;;;;;;19.45;94.82;93982.56;5132490;27;20283;-78
2021/09/25 09:33:48;;;;;;;4.68;2.90;;;;;;;19.62;94.51;93989.56;5135770;27;20227;-78
2021/09/25 09:36:17;;;;;;;6.15;2.80;;;;;;;19.59;93.04;93985.59;5135764;27;20193;-78
2021/09/25 09:38:49;;;;;;;6.25;2.97;;;;;;;19.59;90.49;93983.72;5135620;27;20224;-78
2021/09/25 09:41:16;;;;;;;6.03;2.60;;;;;;;19.63;89.29;93972.63;5135687;27;20204;-79
2021/09/25 09:43:44;;;;;;;8.57;2.92;;;;;;;19.61;92.25;93970.22;5135515;27;20211;-79
2021/09/25 09:46:11;;;;;;;5.05;2.72;;;;;;;19.60;95.66;93968.63;5135686;27;20204;-79
2021/09/25 09:48:37;;;;;;;3.13;2.50;;;;;;;19.69;88.30;93963.69;5110073;27;20209;-79
2021/09/25 09:51:04;;;;;;;4.25;2.85;;;;;;;19.78;91.46;93960.34;5094456;28;20251;-79
2021/09/25 09:53:41;;;;;;;3.17;2.22;;;;;;;20.02;83.41;93967.13;5096283;28;20210;-78
2021/09/25 09:56:26;;;;;;;4.18;2.70;;;;;;;20.14;84.12;93970.41;5115013;28;20201;-77
2021/09/25 09:59:01;;;;;;;4.22;2.50;;;;;;;20.07;88.43;93961.88;5114704;28;20204;-77
2021/09/25 10:01:29;;;;;;;3.35;2.70;;;;;;;20.25;86.62;93964.13;5114661;28;20200;-76
2021/09/25 10:03:55;;;;;;;3.35;2.40;;;;;;;20.35;89.05;93968.69;5113590;28;20563;-78
2021/09/25 10:06:22;;;;;;;6.57;3.30;;;;;;;20.48;89.92;93962.94;5114439;28;20205;-77
2021/09/25 10:08:48;;;;;;;3.70;2.80;;;;;;;20.52;85.90;93965.84;5114572;28;20205;-77
2021/09/25 10:11:16;;;;;;;3.53;2.40;;;;;;;20.54;84.12;93958.44;5114601;28;20250;-77
2021/09/25 10:13:43;;;;;;;4.43;2.45;;;;;;;20.76;85.80;93954.84;5114395;28;20205;-77
2021/09/25 10:16:12;;;;;;;4.95;2.50;;;;;;;20.79;82.35;93960.44;5114410;28;20224;-77
2021/09/25 10:18:40;;;;;;;4.07;2.58;;;;;;;20.81;81.86;93968.13;5114227;28;20209;-78
2021/09/25 10:21:09;;;;;;;6.13;2.40;;;;;;;20.83;92.50;93961.53;5114573;28;20201;-77
2021/09/25 10:23:38;;;;;;;6.20;2.58;;;;;;;20.81;88.44;93968.13;5114363;28;20287;-77
2021/09/25 10:26:04;;;;;;;4.28;2.80;;;;;;;20.83;90.37;93966.84;5114111;28;20282;-77
2021/09/25 10:28:32;;;;;;;3.63;2.60;;;;;;;21.04;86.29;93961.59;5114205;28;20201;-78
2021/09/25 10:30:59;;;;;;;3.80;2.15;;;;;;;21.20;77.41;93959.75;5114218;28;20577;-77
2021/09/25 10:33:27;;;;;;;4.05;2.55;;;;;;;21.17;76.48;93962.97;5114049;28;20201;-77
2021/09/25 10:35:54;;;;;;;4.93;2.25;;;;;;;21.16;82.11;93964.78;5114086;28;20225;-78
2021/09/25 10:38:36;;;;;;;4.60;2.30;;;;;;;21.30;80.95;93965.13;5113948;28;20242;-77
2021/09/25 10:41:16;;;;;;;4.05;2.17;;;;;;;21.51;78.83;93960.66;5114010;28;20201;-77
2021/09/25 10:43:44;;;;;;;5.93;2.38;;;;;;;21.50;74.51;93960.91;5113709;28;20192;-77
2021/09/25 10:46:11;;;;;;;4.90;2.25;;;;;;;21.49;77.07;93956.66;5114088;28;20289;-76
2021/09/25 10:48:49;;;;;;;2.67;2.10;;;;;;;21.48;76.39;93955.84;5113845;28;20197;-77
2021/09/25 10:51:17;;;;;;;3.30;2.13;;;;;;;21.52;79.08;93956.94;5113826;28;20196;-76
2021/09/25 10:53:46;;;;;;;6.47;3.20;;;;;;;21.67;78.91;93964.13;5113576;28;20555;-76
2021/09/25 10:56:18;;;;;;;9.25;2.70;;;;;;;21.61;77.58;93958.00;5113606;28;20197;-76
2021/09/25 10:58:52;;;;;;;2.83;2.13;;;;;;;21.68;78.24;93955.06;5113519;28;20660;-76
2021/09/25 11:01:20;;;;;;;4.13;2.35;;;;;;;21.51;80.20;93951.88;5113888;28;20220;-77
2021/09/25 11:04:19;;;;;;;4.18;2.40;;;;;;;21.43;77.12;93951.31;5113620;28;20197;-77
2021/09/25 11:06:49;;;;;;;4.07;2.28;;;;;;;21.64;82.80;93956.69;5113427;28;20205;-77
2021/09/25 11:09:19;;;;;;;6.32;2.55;;;;;;;21.80;79.05;93946.84;5113460;28;20663;-76
2021/09/25 11:11:51;;;;;;;4.05;2.42;;;;;;;21.80;79.47;93942.34;5113711;28;20228;-76
2021/09/25 11:14:26;;;;;;;4.80;2.38;;;;;;;21.96;80.10;93948.44;5113276;28;20575;-76
2021/09/25 11:16:58;;;;;;;3.47;2.03;;;;;;;22.12;75.08;93949.22;5113428;28;20634;-76
2021/09/25 11:19:47;;;;;;;3.28;2.10;;;;;;;22.02;71.11;93943.13;5113310;28;20559;-75
2021/09/25 11:22:22;;;;;;;2.90;1.73;;;;;;;21.89;73.72;93933.81;5113554;28;20200;-76
2021/09/25 11:24:51;;;;;;;3.25;2.03;;;;;;;22.05;71.58;93943.38;5113488;28;20208;-76
2021/09/25 11:27:20;;;;;;;3.42;1.85;;;;;;;22.14;74.32;93947.09;5113009;28;20695;-76
2021/09/25 11:29:58;;;;;;;3.15;2.03;;;;;;;22.30;73.24;93947.06;5113498;28;20197;-76
2021/09/25 11:32:27;;;;;;;3.85;2.00;;;;;;;22.30;68.13;93944.41;5113330;28;20205;-77
2021/09/25 11:34:55;;;;;;;3.33;1.88;;;;;;;22.34;73.77;93932.97;5113212;28;20601;-77